createdAt,value
2018-11-04T00:01:44.238Z,102114.42
2018-11-04T00:04:13.146Z,102110.12
2018-11-04T00:06:42.069Z,102104.44
2018-11-04T00:09:11.914Z,102100.77
2018-11-04T00:11:40.984Z,102095.63
2018-11-04T00:14:09.856Z,102096.64
2018-11-04T00:16:38.755Z,102104.44
2018-11-04T00:19:07.655Z,102095.47
2018-11-04T00:21:36.495Z,102089.34
2018-11-04T00:24:05.494Z,102091.97
2018-11-04T00:26:34.326Z,102082.16
2018-11-04T00:29:03.210Z,102079.16
2018-11-04T00:31:32.097Z,102074.36
2018-11-04T00:34:00.961Z,102072.32
2018-11-04T00:36:29.847Z,102066.39
2018-11-04T00:38:58.749Z,102066.36
2018-11-04T00:41:27.628Z,102064.05
2018-11-04T00:43:56.516Z,102061.34
2018-11-04T00:46:25.474Z,102064.00
2018-11-04T00:48:54.337Z,102053.41
2018-11-04T00:51:23.229Z,102054.89
2018-11-04T00:53:52.075Z,102048.44
2018-11-04T00:56:20.983Z,102044.42
2018-11-04T00:58:49.929Z,102038.61
2018-11-04T01:01:18.803Z,102043.59
2018-11-04T01:03:47.698Z,102038.61
2018-11-04T01:06:16.571Z,102025.48
2018-11-04T01:08:45.492Z,102025.49
2018-11-04T01:11:15.460Z,102024.47
2018-11-04T01:13:44.366Z,102022.31
2018-11-04T01:16:13.243Z,102017.00
2018-11-04T01:18:42.130Z,102020.17
2018-11-04T01:21:14.763Z,102013.86
2018-11-04T01:23:43.659Z,102010.70
2018-11-04T01:26:12.581Z,102008.53
2018-11-04T01:28:41.463Z,102010.20
2018-11-04T01:31:10.337Z,102002.72
2018-11-04T01:33:39.297Z,102002.72
2018-11-04T01:36:08.225Z,101996.91
2018-11-04T01:38:37.139Z,101992.42
2018-11-04T01:41:11.787Z,101992.25
2018-11-04T01:43:40.648Z,101988.09
2018-11-04T01:46:09.904Z,101979.95
2018-11-04T01:49:03.137Z,101980.78
2018-11-04T01:54:15.091Z,101966.31
2018-11-04T01:56:43.970Z,101966.98
2018-11-04T01:59:12.830Z,101962.02
2018-11-04T02:01:41.960Z,101958.86
2018-11-04T02:04:12.746Z,101952.22
2018-11-04T02:06:41.674Z,101948.39
2018-11-04T02:09:11.472Z,101939.09
2018-11-04T02:11:41.646Z,101929.11
2018-11-04T02:14:10.535Z,101927.11
2018-11-04T02:16:39.459Z,101923.48
2018-11-04T02:19:08.386Z,101920.50
2018-11-04T02:21:38.162Z,101920.83
2018-11-04T02:24:07.384Z,101919.17
2018-11-04T02:26:36.338Z,101917.84
2018-11-04T02:29:05.331Z,101914.50
2018-11-04T02:31:34.232Z,101908.70
2018-11-04T02:34:03.151Z,101904.23
2018-11-04T02:36:32.126Z,101905.86
2018-11-04T02:39:01.078Z,101904.88
2018-11-04T02:41:30.002Z,101893.89
2018-11-04T02:43:58.953Z,101888.55
2018-11-04T02:46:27.904Z,101886.24
2018-11-04T02:48:56.791Z,101890.77
2018-11-04T02:51:25.727Z,101878.11
2018-11-04T02:53:54.633Z,101877.09
2018-11-04T02:56:23.676Z,101878.59
2018-11-04T02:58:52.575Z,101875.93
2018-11-04T03:01:21.504Z,101877.74
2018-11-04T03:03:50.459Z,101868.96
2018-11-04T03:06:19.386Z,101865.50
2018-11-04T03:08:48.356Z,101857.84
2018-11-04T03:11:17.303Z,101850.99
2018-11-04T03:13:46.209Z,101846.73
2018-11-04T03:16:15.151Z,101842.02
2018-11-04T03:18:44.146Z,101843.75
2018-11-04T03:21:13.116Z,101844.88
2018-11-04T03:23:42.018Z,101841.75
2018-11-04T03:26:10.963Z,101842.55
2018-11-04T03:28:39.867Z,101844.55
2018-11-04T03:31:08.753Z,101824.30
2018-11-04T03:33:37.712Z,101831.05
2018-11-04T03:36:06.682Z,101827.22
2018-11-04T03:38:35.597Z,101825.73
2018-11-04T03:41:04.594Z,101822.77
2018-11-04T03:43:33.522Z,101819.25
2018-11-04T03:46:02.581Z,101818.50
2018-11-04T03:48:31.681Z,101812.81
2018-11-04T03:51:00.722Z,101802.12
2018-11-04T03:53:29.625Z,101811.11
2018-11-04T03:55:58.633Z,101810.11
2018-11-04T03:58:27.561Z,101808.88
2018-11-04T04:00:56.512Z,101805.17
2018-11-04T04:03:25.415Z,101803.83
2018-11-04T04:05:54.414Z,101794.52
2018-11-04T04:08:23.356Z,101794.83
2018-11-04T04:10:52.344Z,101791.81
2018-11-04T04:13:21.289Z,101786.06
2018-11-04T04:15:50.231Z,101788.02
2018-11-04T04:18:19.326Z,101775.68
2018-11-04T04:20:48.421Z,101773.17
2018-11-04T04:23:17.490Z,101768.18
2018-11-04T04:25:46.399Z,101767.38
2018-11-04T04:28:15.356Z,101772.72
2018-11-04T04:30:44.301Z,101765.74
2018-11-04T04:33:13.209Z,101764.89
2018-11-04T04:35:42.119Z,101758.31
2018-11-04T04:38:11.102Z,101762.56
2018-11-04T04:40:40.116Z,101755.25
2018-11-04T04:43:09.070Z,101762.61
2018-11-04T04:45:38.042Z,101759.73
2018-11-04T04:48:06.985Z,101757.00
2018-11-04T04:50:35.922Z,101756.60
2018-11-04T04:53:05.410Z,101752.63
2018-11-04T04:55:34.335Z,101752.12
2018-11-04T04:58:03.221Z,101746.13
2018-11-04T05:00:32.159Z,101751.27
2018-11-04T05:03:01.371Z,101750.97
2018-11-04T05:05:30.318Z,101753.31
2018-11-04T05:07:59.264Z,101749.09
2018-11-04T05:10:28.199Z,101748.95
2018-11-04T05:12:57.102Z,101744.64
2018-11-04T05:15:26.031Z,101742.67
2018-11-04T05:17:54.980Z,101733.83
2018-11-04T05:20:23.884Z,101734.12
2018-11-04T05:22:52.806Z,101739.28
2018-11-04T05:25:21.699Z,101739.91
2018-11-04T05:27:50.701Z,101749.88
2018-11-04T05:30:19.653Z,101751.41
2018-11-04T05:32:48.555Z,101744.78
2018-11-04T05:35:17.478Z,101747.20
2018-11-04T05:37:46.393Z,101739.54
2018-11-04T05:40:15.360Z,101740.53
2018-11-04T05:42:44.249Z,101737.70
2018-11-04T05:45:13.143Z,101733.96
2018-11-04T05:47:42.084Z,101734.94
2018-11-04T05:50:11.032Z,101732.27
2018-11-04T05:52:39.923Z,101737.59
2018-11-04T05:55:09.333Z,101742.27
2018-11-04T05:57:38.573Z,101744.22
2018-11-04T06:00:08.700Z,101730.98
2018-11-04T06:02:37.669Z,101729.13
2018-11-04T06:05:06.952Z,101727.42
2018-11-04T06:07:35.915Z,101730.05
2018-11-04T06:10:05.139Z,101734.19
2018-11-04T06:12:34.038Z,101733.94
2018-11-04T06:15:02.965Z,101732.23
2018-11-04T06:17:31.924Z,101732.28
2018-11-04T06:20:00.840Z,101730.14
2018-11-04T06:22:29.809Z,101731.80
2018-11-04T06:24:58.727Z,101736.28
2018-11-04T06:27:27.698Z,101732.66
2018-11-04T06:29:56.656Z,101735.80
2018-11-04T06:32:25.590Z,101741.56
2018-11-04T06:34:54.513Z,101737.11
2018-11-04T06:37:23.449Z,101724.41
2018-11-04T06:39:52.358Z,101725.39
2018-11-04T06:42:21.305Z,101725.70
2018-11-04T06:44:50.226Z,101732.02
2018-11-04T06:47:19.217Z,101728.83
2018-11-04T06:49:48.253Z,101728.59
2018-11-04T06:52:17.174Z,101725.99
2018-11-04T06:54:46.159Z,101717.55
2018-11-04T06:57:15.052Z,101729.58
2018-11-04T06:59:43.958Z,101717.86
2018-11-04T07:02:12.911Z,101719.77
2018-11-04T07:04:41.855Z,101715.77
2018-11-04T07:07:10.773Z,101718.49
2018-11-04T07:09:39.715Z,101723.61
2018-11-04T07:12:08.656Z,101719.62
2018-11-04T07:14:37.549Z,101721.63
2018-11-04T07:17:06.464Z,101713.39
2018-11-04T07:19:35.492Z,101714.69
2018-11-04T07:22:04.421Z,101711.74
2018-11-04T07:24:33.324Z,101707.22
2018-11-04T07:27:02.282Z,101705.39
2018-11-04T07:29:31.237Z,101709.81
2018-11-04T07:32:00.255Z,101708.97
2018-11-04T07:34:29.124Z,101707.70
2018-11-04T07:36:58.080Z,101719.10
2018-11-04T07:39:27.004Z,101723.75
2018-11-04T07:41:55.976Z,101734.77
2018-11-04T07:44:25.066Z,101727.16
2018-11-04T07:46:53.852Z,101728.36
2018-11-04T07:49:22.821Z,101714.59
2018-11-04T07:51:51.732Z,101713.75
2018-11-04T07:54:20.676Z,101714.70
2018-11-04T07:56:49.671Z,101715.91
2018-11-04T07:59:18.605Z,101711.60
2018-11-04T08:01:51.735Z,101712.40
2018-11-04T08:04:22.847Z,101713.69
2018-11-04T08:09:27.308Z,101707.16
2018-11-04T08:11:56.316Z,101705.56
2018-11-04T08:14:25.209Z,101697.95
2018-11-04T08:16:54.161Z,101693.52
2018-11-04T08:19:23.160Z,101682.30
2018-11-04T08:21:53.737Z,101683.38
2018-11-04T08:24:25.219Z,101687.91
2018-11-04T08:27:07.560Z,101682.52
2018-11-04T08:29:36.555Z,101683.69
2018-11-04T08:32:05.647Z,101681.06
2018-11-04T08:34:34.631Z,101673.71
2018-11-04T08:37:03.559Z,101678.01
2018-11-04T08:39:32.525Z,101678.02
2018-11-04T08:42:01.501Z,101678.52
2018-11-04T08:44:44.484Z,101670.58
2018-11-04T08:47:13.403Z,101669.62
2018-11-04T08:49:42.334Z,101668.69
2018-11-04T08:52:11.306Z,101669.33
2018-11-04T08:54:40.248Z,101667.30
2018-11-04T08:57:09.231Z,101665.41
2018-11-04T08:59:38.243Z,101666.50
2018-11-04T09:02:07.171Z,101657.16
2018-11-04T09:04:36.109Z,101654.11
2018-11-04T09:07:05.049Z,101652.58
2018-11-04T09:09:34.056Z,101642.70
2018-11-04T09:12:03.264Z,101639.38
2018-11-04T09:14:33.587Z,101640.86
2018-11-04T09:17:02.546Z,101631.50
2018-11-04T09:19:31.480Z,101636.99
2018-11-04T09:22:00.558Z,101632.66
2018-11-04T09:24:29.406Z,101631.39
2018-11-04T09:26:58.384Z,101628.05
2018-11-04T09:29:28.561Z,101625.67
2018-11-04T09:32:02.949Z,101621.02
2018-11-04T09:34:34.185Z,101621.14
2018-11-04T09:37:03.094Z,101612.59
2018-11-04T09:39:32.057Z,101620.53
2018-11-04T09:42:01.002Z,101619.23
2018-11-04T09:48:06.352Z,101620.14
2018-11-04T09:50:35.309Z,101621.59
2018-11-04T09:53:04.277Z,101625.64
2018-11-04T09:55:33.234Z,101626.75
2018-11-04T09:58:02.210Z,101614.97
2018-11-04T10:00:31.200Z,101615.92
2018-11-04T10:03:00.160Z,101614.78
2018-11-04T10:05:29.125Z,101617.48
2018-11-04T10:07:58.105Z,101613.58
2018-11-04T10:10:27.069Z,101607.86
2018-11-04T10:12:56.040Z,101609.20
2018-11-04T10:15:25.008Z,101603.84
2018-11-04T10:17:53.924Z,101593.14
2018-11-04T10:20:23.094Z,101595.75
2018-11-04T10:22:51.971Z,101587.03
2018-11-04T10:25:20.948Z,101596.46
2018-11-04T10:27:49.920Z,101586.41
2018-11-04T10:30:18.973Z,101575.78
2018-11-04T10:32:47.847Z,101581.44
2018-11-04T10:35:16.836Z,101578.16
2018-11-04T10:37:45.803Z,101575.90
2018-11-04T10:40:14.772Z,101572.17
2018-11-04T10:42:43.734Z,101567.01
2018-11-04T10:45:12.667Z,101568.48
2018-11-04T10:47:41.632Z,101559.80
2018-11-04T10:50:11.682Z,101556.09
2018-11-04T10:52:40.634Z,101559.17
2018-11-04T10:55:10.684Z,101553.80
2018-11-04T10:57:39.759Z,101559.56
2018-11-04T11:00:15.874Z,101551.91
2018-11-04T11:02:45.253Z,101553.05
2018-11-04T11:05:14.404Z,101545.11
2018-11-04T11:07:43.437Z,101541.84
2018-11-04T11:10:12.598Z,101538.31
2018-11-04T11:12:41.636Z,101528.52
2018-11-04T11:15:11.359Z,101526.97
2018-11-04T11:17:40.729Z,101520.55
2018-11-04T11:20:10.786Z,101518.77
2018-11-04T11:22:39.941Z,101524.67
2018-11-04T11:25:09.480Z,101513.59
2018-11-04T11:27:38.545Z,101511.10
2018-11-04T11:30:07.596Z,101514.20
2018-11-04T11:32:36.495Z,101509.64
2018-11-04T11:35:06.495Z,101511.91
2018-11-04T11:37:35.585Z,101509.00
2018-11-04T11:40:04.573Z,101507.06
2018-11-04T11:42:33.518Z,101506.20
2018-11-04T11:45:02.591Z,101507.25
2018-11-04T11:47:31.403Z,101504.66
2018-11-04T11:50:00.379Z,101506.92
2018-11-04T11:52:29.335Z,101499.11
2018-11-04T11:54:58.354Z,101499.14
2018-11-04T11:57:27.314Z,101482.27
2018-11-04T11:59:56.280Z,101483.49
2018-11-04T12:02:25.304Z,101475.12
2018-11-04T12:04:54.239Z,101482.50
2018-11-04T12:07:23.210Z,101475.70
2018-11-04T12:09:52.298Z,101480.41
2018-11-04T12:12:21.256Z,101472.12
2018-11-04T12:14:50.236Z,101466.25
2018-11-04T12:17:19.242Z,101463.23
2018-11-04T12:19:48.219Z,101454.00
2018-11-04T12:22:17.185Z,101448.14
2018-11-04T12:24:46.163Z,101451.83
2018-11-04T12:27:15.294Z,101451.06
2018-11-04T12:29:44.228Z,101439.29
2018-11-04T12:32:13.218Z,101441.14
2018-11-04T12:34:42.189Z,101429.44
2018-11-04T12:37:11.421Z,101433.34
2018-11-04T12:39:40.416Z,101430.48
2018-11-04T12:42:09.470Z,101427.92
2018-11-04T12:44:38.468Z,101428.14
2018-11-04T12:47:07.517Z,101424.73
2018-11-04T12:49:36.501Z,101421.73
2018-11-04T12:52:05.679Z,101425.67
2018-11-04T12:54:34.712Z,101420.30
2018-11-04T12:57:11.817Z,101421.48
2018-11-04T12:59:40.791Z,101425.24
2018-11-04T13:02:09.805Z,101415.80
2018-11-04T13:04:39.262Z,101416.69
2018-11-04T13:07:08.438Z,101404.26
2018-11-04T13:09:37.444Z,101398.73
2018-11-04T13:12:06.394Z,101394.03
2018-11-04T13:14:35.388Z,101395.41
2018-11-04T13:17:04.405Z,101391.27
2018-11-04T13:19:33.311Z,101391.53
2018-11-04T13:22:02.245Z,101394.52
2018-11-04T13:24:31.182Z,101389.78
2018-11-04T13:27:00.203Z,101388.09
2018-11-04T13:29:29.118Z,101389.87
2018-11-04T13:31:58.105Z,101380.34
2018-11-04T13:34:27.048Z,101377.14
2018-11-04T13:36:56.028Z,101378.02
2018-11-04T13:39:25.010Z,101381.30
2018-11-04T13:41:53.951Z,101383.02
2018-11-04T13:44:22.903Z,101391.96
2018-11-04T13:46:51.863Z,101373.52
2018-11-04T13:49:20.784Z,101369.66
2018-11-04T13:51:49.718Z,101376.69
2018-11-04T13:54:18.657Z,101376.30
2018-11-04T13:56:47.633Z,101370.54
2018-11-04T13:59:16.577Z,101365.95
2018-11-04T14:01:45.590Z,101369.44
2018-11-04T14:04:14.527Z,101376.07
2018-11-04T14:06:43.452Z,101380.25
2018-11-04T14:09:12.377Z,101378.86
2018-11-04T14:11:41.355Z,101386.25
2018-11-04T14:14:10.301Z,101396.50
2018-11-04T14:16:39.274Z,101389.20
2018-11-04T14:19:08.240Z,101394.06
2018-11-04T14:21:37.197Z,101385.70
2018-11-04T14:24:06.159Z,101378.02
2018-11-04T14:26:35.106Z,101377.36
2018-11-04T14:29:04.093Z,101366.98
2018-11-04T14:31:33.217Z,101375.95
2018-11-04T14:34:02.170Z,101362.96
2018-11-04T14:36:31.117Z,101366.55
2018-11-04T14:39:00.350Z,101362.55
2018-11-04T14:41:29.275Z,101364.61
2018-11-04T14:43:58.253Z,101358.13
2018-11-04T14:46:27.219Z,101366.25
2018-11-04T14:48:56.171Z,101360.73
2018-11-04T14:51:25.211Z,101356.64
2018-11-04T14:53:54.267Z,101363.27
2018-11-04T14:56:27.370Z,101362.61
2018-11-04T14:58:56.859Z,101350.73
2018-11-04T15:01:26.255Z,101352.09
2018-11-04T15:03:55.232Z,101344.23
2018-11-04T15:06:25.047Z,101341.40
2018-11-04T15:08:54.232Z,101339.72
2018-11-04T15:11:23.256Z,101337.17
2018-11-04T15:13:52.257Z,101337.16
2018-11-04T15:16:21.256Z,101339.02
2018-11-04T15:18:50.247Z,101328.42
2018-11-04T15:21:19.143Z,101318.37
2018-11-04T15:23:48.118Z,101326.86
2018-11-04T15:26:17.205Z,101320.66
2018-11-04T15:28:46.192Z,101318.37
2018-11-04T15:31:15.154Z,101311.58
2018-11-04T15:33:44.132Z,101311.44
2018-11-04T15:36:13.090Z,101318.45
2018-11-04T15:38:42.138Z,101307.92
2018-11-04T15:41:11.094Z,101321.13
2018-11-04T15:43:40.006Z,101316.96
2018-11-04T15:46:08.990Z,101311.66
2018-11-04T15:48:37.961Z,101316.71
2018-11-04T15:51:06.936Z,101316.12
2018-11-04T15:53:35.911Z,101317.39
2018-11-04T15:56:04.954Z,101306.35
2018-11-04T15:58:34.317Z,101312.23
2018-11-04T16:01:03.285Z,101310.02
2018-11-04T16:03:32.255Z,101313.98
2018-11-04T16:06:01.234Z,101317.16
2018-11-04T16:08:30.272Z,101306.64
2018-11-04T16:10:59.317Z,101313.44
2018-11-04T16:13:28.441Z,101314.04
2018-11-04T16:15:57.400Z,101308.05
2018-11-04T16:18:26.413Z,101310.52
2018-11-04T16:20:55.425Z,101316.26
2018-11-04T16:23:24.409Z,101314.63
2018-11-04T16:25:54.436Z,101305.38
2018-11-04T16:28:23.397Z,101310.39
2018-11-04T16:30:52.354Z,101303.31
2018-11-04T16:33:21.456Z,101300.38
2018-11-04T16:35:50.357Z,101298.02
2018-11-04T16:38:19.317Z,101297.03
2018-11-04T16:40:48.901Z,101303.38
2018-11-04T16:43:17.990Z,101300.92
2018-11-04T16:45:46.920Z,101300.38
2018-11-04T16:48:15.911Z,101305.17
2018-11-04T16:50:44.911Z,101310.69
2018-11-04T16:53:13.879Z,101308.36
2018-11-04T16:55:42.873Z,101313.52
2018-11-04T16:58:11.868Z,101311.95
2018-11-04T17:00:40.801Z,101309.92
2018-11-04T17:03:09.873Z,101311.81
2018-11-04T17:05:39.174Z,101315.01
2018-11-04T17:08:07.844Z,101304.05
2018-11-04T17:10:36.904Z,101310.47
2018-11-04T17:13:06.458Z,101316.78
2018-11-04T17:15:35.430Z,101316.96
2018-11-04T17:18:04.484Z,101311.44
2018-11-04T17:20:33.464Z,101313.66
2018-11-04T17:23:02.482Z,101308.29
2018-11-04T17:25:31.461Z,101302.48
2018-11-04T17:28:00.440Z,101299.72
2018-11-04T17:30:29.415Z,101288.14
2018-11-04T17:32:58.425Z,101295.91
2018-11-04T17:35:27.420Z,101288.00
2018-11-04T17:37:56.419Z,101290.39
2018-11-04T17:40:25.418Z,101288.90
2018-11-04T17:42:54.392Z,101281.72
2018-11-04T17:45:23.433Z,101281.28
2018-11-04T17:47:52.363Z,101278.09
2018-11-04T17:50:21.380Z,101280.99
2018-11-04T17:52:50.376Z,101284.41
2018-11-04T17:55:19.381Z,101274.28
2018-11-04T17:57:48.379Z,101281.14
2018-11-04T18:00:18.000Z,101268.83
2018-11-04T18:02:47.076Z,101271.45
2018-11-04T18:05:16.067Z,101285.67
2018-11-04T18:07:45.254Z,101276.53
2018-11-04T18:10:15.138Z,101277.77
2018-11-04T18:12:44.199Z,101279.36
2018-11-04T18:15:14.059Z,101268.66
2018-11-04T18:17:43.048Z,101264.66
2018-11-04T18:20:12.590Z,101266.22
2018-11-04T18:22:41.683Z,101278.67
2018-11-04T18:25:11.493Z,101274.06
2018-11-04T18:27:40.496Z,101275.41
2018-11-04T18:30:11.506Z,101273.66
2018-11-04T18:32:40.525Z,101277.98
2018-11-04T18:35:09.609Z,101274.13
2018-11-04T18:37:38.891Z,101276.89
2018-11-04T18:40:09.919Z,101279.03
2018-11-04T18:42:40.772Z,101279.87
2018-11-04T18:45:10.996Z,101265.09
2018-11-04T18:47:40.005Z,101263.39
2018-11-04T18:50:10.166Z,101256.89
2018-11-04T18:52:39.299Z,101249.97
2018-11-04T18:55:09.154Z,101253.84
2018-11-04T18:57:38.183Z,101254.72
2018-11-04T19:00:08.856Z,101258.89
2018-11-04T19:02:37.874Z,101264.95
2018-11-04T19:05:07.277Z,101262.41
2018-11-04T19:07:36.278Z,101253.52
2018-11-04T19:10:06.332Z,101258.09
2018-11-04T19:12:35.807Z,101260.92
2018-11-04T19:15:04.801Z,101251.95
2018-11-04T19:17:37.368Z,101251.67
2018-11-04T19:20:10.257Z,101246.30
2018-11-04T19:22:45.291Z,101247.42
2018-11-04T19:25:16.297Z,101258.45
2018-11-04T19:27:47.384Z,101261.27
2018-11-04T19:30:19.954Z,101253.87
2018-11-04T19:32:49.128Z,101255.00
2018-11-04T19:35:18.543Z,101259.58
2018-11-04T19:37:47.568Z,101254.41
2018-11-04T19:40:17.200Z,101250.83
2018-11-04T19:42:46.207Z,101263.20
2018-11-04T19:45:15.151Z,101256.81
2018-11-04T19:47:44.184Z,101250.89
2018-11-04T19:50:13.749Z,101254.13
2018-11-04T19:52:43.036Z,101251.39
2018-11-04T19:55:12.897Z,101249.63
2018-11-04T19:57:41.902Z,101246.94
2018-11-04T20:00:11.902Z,101245.92
2018-11-04T20:02:40.919Z,101246.66
2018-11-04T20:05:10.818Z,101256.13
2018-11-04T20:07:39.765Z,101247.41
2018-11-04T20:10:10.516Z,101245.80
2018-11-04T20:12:47.000Z,101243.13
2018-11-04T20:15:16.846Z,101249.31
2018-11-04T20:17:48.122Z,101247.22
2018-11-04T20:20:19.105Z,101237.45
2018-11-04T20:22:50.522Z,101239.86
2018-11-04T20:25:27.294Z,101237.24
2018-11-04T20:28:03.746Z,101235.27
2018-11-04T20:30:32.999Z,101235.53
2018-11-04T20:33:04.046Z,101233.52
2018-11-04T20:35:33.033Z,101230.31
2018-11-04T20:38:02.021Z,101235.67
2018-11-04T20:40:36.343Z,101224.16
2018-11-04T20:43:14.041Z,101221.70
2018-11-04T20:45:49.164Z,101217.09
2018-11-04T20:48:29.810Z,101216.58
2018-11-04T20:51:02.395Z,101207.55
2018-11-04T20:53:36.292Z,101196.85
2018-11-04T20:56:10.988Z,101205.77
2018-11-04T20:58:40.399Z,101204.08
2018-11-04T21:01:12.343Z,101197.78
2018-11-04T21:03:47.187Z,101204.57
2018-11-04T21:06:25.738Z,101201.75
2018-11-04T21:08:55.560Z,101196.83
2018-11-04T21:11:24.763Z,101200.41
2018-11-04T21:13:53.748Z,101202.87
2018-11-04T21:16:22.859Z,101204.14
2018-11-04T21:18:51.756Z,101199.20
2018-11-04T21:21:26.679Z,101191.61
2018-11-04T21:23:57.295Z,101184.22
2018-11-04T21:26:26.248Z,101184.48
2018-11-04T21:28:55.253Z,101184.06
2018-11-04T21:31:24.351Z,101186.33
2018-11-04T21:33:53.293Z,101181.22
2018-11-04T21:36:23.383Z,101179.16
2018-11-04T21:38:52.329Z,101176.21
2018-11-04T21:41:21.311Z,101178.84
2018-11-04T21:43:50.495Z,101181.02
2018-11-04T21:46:19.325Z,101167.72
2018-11-04T21:48:48.315Z,101165.31
2018-11-04T21:51:17.393Z,101173.25
2018-11-04T21:53:46.374Z,101165.86
2018-11-04T21:56:15.454Z,101157.61
2018-11-04T21:58:44.343Z,101158.69
2018-11-04T22:01:13.328Z,101148.58
2018-11-04T22:03:42.522Z,101145.54
2018-11-04T22:06:11.325Z,101148.00
2018-11-04T22:08:40.314Z,101147.66
2018-11-04T22:11:09.309Z,101145.38
2018-11-04T22:13:38.323Z,101146.79
2018-11-04T22:16:07.281Z,101146.60
2018-11-04T22:18:36.328Z,101146.73
2018-11-04T22:21:05.337Z,101140.27
2018-11-04T22:23:34.274Z,101133.94
2018-11-04T22:26:03.258Z,101133.16
2018-11-04T22:28:32.185Z,101138.91
2018-11-04T22:31:01.203Z,101137.06
2018-11-04T22:33:30.210Z,101131.53
2018-11-04T22:35:59.198Z,101124.53
2018-11-04T22:38:28.161Z,101130.09
2018-11-04T22:40:57.141Z,101129.45
2018-11-04T22:43:26.090Z,101125.71
2018-11-04T22:45:55.052Z,101123.48
2018-11-04T22:48:24.042Z,101124.53
2018-11-04T22:50:53.027Z,101117.23
2018-11-04T22:53:22.002Z,101120.91
2018-11-04T22:55:50.992Z,101123.31
2018-11-04T22:58:19.945Z,101118.16
2018-11-04T23:00:53.260Z,101110.00
2018-11-04T23:03:22.260Z,101111.22
2018-11-04T23:05:51.290Z,101111.45
2018-11-04T23:08:20.373Z,101111.47
2018-11-04T23:10:49.371Z,101114.38
2018-11-04T23:13:18.363Z,101110.88
2018-11-04T23:15:47.865Z,101115.54
2018-11-04T23:18:16.880Z,101115.45
2018-11-04T23:20:45.864Z,101108.70
2018-11-04T23:23:15.983Z,101103.32
2018-11-04T23:25:45.170Z,101106.55
2018-11-04T23:28:14.152Z,101099.83
2018-11-04T23:30:46.124Z,101101.11
2018-11-04T23:33:15.681Z,101092.73
2018-11-04T23:35:44.619Z,101099.29
2018-11-04T23:38:13.554Z,101095.94
2018-11-04T23:40:42.529Z,101095.52
2018-11-04T23:43:11.451Z,101092.47
2018-11-04T23:45:40.383Z,101096.73
2018-11-04T23:48:09.380Z,101101.47
2018-11-04T23:50:38.356Z,101096.79
2018-11-04T23:53:07.321Z,101093.06
2018-11-04T23:55:36.271Z,101090.56
2018-11-04T23:58:05.565Z,101094.87
